METAR Data
IDs: Format: Raw Decoded Include TAF

Data at: 0623 UTC 23 Feb 2019

PFEL 230620Z AUTO 18020G27KT 1 1/2SM -SN BR FEW008 BKN015 OVC019 M02/M03 A3002 RMK AO2 PK WND 17027/0617 P0000 FZRANO
PFEL 230556Z AUTO 17019G25KT 1 3/4SM -SN BR OVC007 M02/M03 A3003 RMK AO2 PK WND 16030/0500 CIG 005V010 SLP169 P0000 60000 T10221028 11017 21028 51011 FZRANO
PFEL 230521Z AUTO 18021G28KT 1 3/4SM -SN BR BKN009 OVC013 M02/M03 A3002 RMK AO2 PK WND 16030/0500 CIG 005V012 P0000 FZRANO
PFEL 230508Z AUTO 17019G30KT 1 1/2SM -SN BR FEW007 OVC015 M02/M03 A3002 RMK AO2 PK WND 16030/0500 P0000 FZRANO
PFEL 230503Z AUTO 17019G30KT 1 3/4SM -SN BR OVC015 M02/M03 A3001 RMK AO2 PK WND 16030/0500 P0000 FZRANO
PFEL 230456Z AUTO 17022G28KT 4SM -SN BR OVC017 M02/M03 A3001 RMK AO2 PK WND 16031/0408 SLP163 P0000 T10171028 FZRANO
PFEL 230421Z AUTO 18020G29KT 5SM -SN BR OVC017 M02/M02 A3000 RMK AO2 PK WND 16031/0408 P0000 FZRANO
PFEL 230356Z AUTO 17020G26KT 2SM -SN BR FEW007 OVC017 M02/M03 A2999 RMK AO2 PK WND 18030/0311 SLP158 P0000 T10221028 FZRANO
PFEL 230348Z AUTO 17021G28KT 1 1/2SM -SN BR SCT007 SCT013 OVC019 M02/M03 A2999 RMK AO2 PK WND 18030/0311 P0000 FZRANO
PFEL 230341Z AUTO 17021G28KT 1 1/4SM -SN BR BKN007 BKN013 OVC019 M02/M03 A2999 RMK AO2 PK WND 18030/0311 CIG 005V009 P0000 FZRANO
PFEL 230339Z AUTO 17022G28KT 1SM -SN BR BKN005 BKN013 OVC019 M02/M03 A2999 RMK AO2 PK WND 18030/0311 CIG 005V009 P0000 FZRANO
PFEL 230318Z AUTO 17022G30KT 3/4SM -SN BR OVC005 M02/M03 A2999 RMK AO2 PK WND 18030/0311 P0000 FZRANO
PFEL 230256Z AUTO 18022G31KT 1/2SM SN FZFG OVC005 M02/M03 A2998 RMK AO2 PK WND 17034/0208 SLP153 P0000 60000 T10221028 55003 FZRANO
PFEL 230156Z AUTO 17022G31KT 1/2SM SN FZFG OVC005 M02/M03 A2998 RMK AO2 PK WND 17033/0136 SLP152 P0000 T10221028 FZRANO
PFEL 230117Z AUTO 17023G33KT 1/2SM SN FZFG OVC005 M02/M03 A2998 RMK AO2 PK WND 17033/0116 P0000 FZRANO
PFEL 230106Z AUTO 17024G30KT 3/4SM -SN BR OVC005 M02/M03 A2998 RMK AO2 PK WND 17030/0058 P0000 FZRANO
PFEL 230056Z AUTO 17023G32KT 1/2SM -SN FZFG OVC005 M02/M03 A2998 RMK AO2 PK WND 17035/0019 SLP154 P0000 T10221028 FZRANO
PFEL 222356Z AUTO 17025G34KT 1/2SM SN FZFG OVC005 M03/M03 A2999 RMK AO2 PK WND 17034/2347 SLP156 P0000 60000 T10281033 11028 21033 58007 FZRANO
PFEL 222303Z AUTO 17025G32KT 1/2SM SN FZFG OVC005 M03/M03 A3000 RMK AO2 PK WND 16032/2257 P0000 FZRANO
PFEL 222256Z AUTO 17023G30KT 3/4SM -SN BR OVC005 M03/M03 A3000 RMK AO2 PK WND 16034/2243 SLP160 P0000 T10281033 FZRANO
PFEL 222254Z AUTO 17023G30KT 3/4SM -SN BR OVC005 M03/M03 A3000 RMK AO2 PK WND 16034/2243 P0000 FZRANO
PFEL 222242Z AUTO 17024G32KT 1/2SM -SN FZFG OVC005 M03/M03 A3000 RMK AO2 PK WND 16033/2218 P0000 FZRANO
PFEL 222156Z AUTO 17023G30KT 3/4SM -SN BR OVC005 M03/M03 A3001 RMK AO2 PK WND 16033/2059 SLP163 P0000 T10281033 FZRANO
PFEL 222143Z AUTO 17022G30KT 3/4SM -SN BR OVC005 M03/M04 A3001 RMK AO2 PK WND 16033/2059 P0000 FZRANO
PFEL 222129Z AUTO 17025G31KT 1/2SM -SN FZFG OVC005 M03/M04 A3001 RMK AO2 PK WND 16033/2059 P0000 FZRANO
PFEL 222056Z AUTO 17023G30KT 3/4SM -SN BR OVC005 M03/M04 A3002 RMK AO2 PK WND 17032/2043 SLP165 P0000 60000 T10331039 58005 FZRANO
PFEL 222004Z AUTO 17022G28KT 3/4SM -SN BR OVC005 M03/M04 A3003 RMK AO2 PK WND 17028/2004 P0000 FZRANO
PFEL 221956Z AUTO 17020G26KT 1SM -SN BR OVC007 M03/M04 A3003 RMK AO2 PK WND 17030/1903 SLP171 P0000 T10331039 FZRANO
PFEL 221909Z AUTO 17019G30KT 1SM -SN BR BKN009 OVC020 M03/M04 A3003 RMK AO2 PK WND 17030/1903 CIG 007V010 P0000 FZRANO
PFEL 221856Z AUTO 17019G28KT 3/4SM -SN BR SCT009 SCT015 OVC020 M03/M04 A3003 RMK AO2 PK WND 17030/1814 SLP170 P0000 T10331044 FZRANO
PFEL 221810Z AUTO 17021G29KT 1 1/4SM -SN BR FEW007 SCT011 OVC020 M03/M04 A3003 RMK AO2 PK WND 16029/1803 P0000 FZRANO
PFEL 221803Z AUTO 17020G29KT 2SM -SN BR FEW007 OVC020 M03/M04 A3003 RMK AO2 PK WND 16029/1803 P0000 FZRANO
PFEL 221756Z AUTO 17018G27KT 1 3/4SM -SN BR OVC020 M03/M04 A3003 RMK AO2 PK WND 17027/1755 SLP170 P0000 60000 T10331044 11033 21050 56017 FZRANO
PFEL 221656Z AUTO 17019G26KT 5SM -SN BR OVC018 M03/M04 A3004 RMK AO2 PK WND 16026/1655 SLP173 P0000 T10331044 FZRANO
PFEL 221556Z AUTO 17017G20KT 6SM -SN BR OVC018 M04/M04 A3004 RMK AO2 SLP175 P0000 T10391044 FZRANO
PFEL 221456Z AUTO 17008KT 7SM -SN FEW007 OVC018 M04/M05 A3008 RMK AO2 SLP187 P0000 60000 T10391050 57003 FZRANO
PFEL 221453Z AUTO 17009KT 7SM -SN SCT007 BKN015 OVC021 M04/M05 A3008 RMK AO2 P0000 FZRANO
PFEL 221444Z AUTO 17009G18KT 4SM -SN BR BKN007 OVC015 M04/M05 A3008 RMK AO2 CIG 005V010 P0000 FZRANO
PFEL 221408Z AUTO 18007KT 3SM -SN BR OVC005 M04/M05 A3009 RMK AO2 P0000 FZRANO
PFEL 221356Z AUTO VRB03KT 1 1/2SM -SN BR OVC005 M04/M05 A3009 RMK AO2 VIS 3/4V2 1/2 SLP190 P0000 T10391050 FZRANO
PFEL 221347Z AUTO VRB03KT 2SM -SN BR OVC005 M04/M05 A3009 RMK AO2 VIS 1V5 P0000 FZRANO
PFEL 221335Z AUTO VRB04KT 3SM -SN BR OVC005 M04/M05 A3009 RMK AO2 P0000 FZRANO
PFEL 221329Z AUTO 20004KT 1 3/4SM -SN BR OVC005 M04/M05 A3010 RMK AO2 VIS 1V3 P0000 FZRANO
PFEL 221317Z AUTO 18004KT 2SM -SN BR OVC005 M04/M06 A3010 RMK AO2 P0000 FZRANO
PFEL 221256Z AUTO 17003KT 1 1/4SM -SN BR OVC005 M04/M06 A3010 RMK AO2 SLP193 P0000 T10441056 FZRANO
PFEL 221251Z AUTO 18003KT 1SM -SN BR OVC005 M04/M06 A3010 RMK AO2 P0000 FZRANO
PFEL 221243Z AUTO 19004KT 1 1/4SM -SN BR OVC005 M04/M06 A3010 RMK AO2 P0000 FZRANO
PFEL 221235Z AUTO 19005KT 1SM -SN BR BKN005 OVC010 M04/M06 A3010 RMK AO2 P0000 FZRANO
PFEL 221227Z AUTO 20004KT 1 1/4SM -SN BR BKN005 OVC010 M04/M06 A3011 RMK AO2 CIG 004V008 P0000 FZRANO
PFEL 221216Z AUTO 21005KT 1 3/4SM -SN BR BKN007 OVC012 M04/M06 A3010 RMK AO2 VIS 1 1/4V2 1/2 CIG 005V010 P0000 FZRANO
PFEL 221156Z AUTO 18007KT 2 1/2SM -SN BR BKN012 OVC020 M04/M06 A3010 RMK AO2 VIS 1 1/2V5 SNB16 SLP195 P0000 60000 T10441061 11039 21056 51007 FZRANO
PFEL 221154Z AUTO 18004KT 2 1/2SM -SN BR BKN012 OVC020 M04/M06 A3010 RMK AO2 VIS 1 1/2V5 SNB16 P0000 FZRANO
PFEL 221056Z AUTO 21010KT 10SM FEW009 BKN036 OVC043 M05/M06 A3010 RMK AO2 SLP193 T10501061 FZRANO
PFEL 221034Z AUTO 20005KT 10SM FEW009 OVC044 M05/M07 A3010 RMK AO2 FZRANO
PFEL 220956Z AUTO 22008KT 10SM FEW011 BKN040 M05/M07 A3010 RMK AO2 SLP192 T10501067 FZRANO
PFEL 220856Z AUTO 21007KT 10SM OVC034 M04/M06 A3008 RMK AO2 SNE04 SLP188 P0000 60000 T10441056 410281056 53017 FZRANO
PFEL 220814Z AUTO 22008KT 10SM SCT009 OVC034 M04/M06 A3006 RMK AO2 SNE04 P0000 FZRANO
PFEL 220756Z AUTO 21007KT 9SM -SN OVC009 M04/M06 A3006 RMK AO2 SLP179 P0000 T10441056 FZRANO
PFEL 220708Z AUTO 21008KT 9SM -SN BKN009 BKN015 OVC038 M06/M07 A3004 RMK AO2 CIG 008V011 P0000 FZRANO
PFEL 220656Z AUTO 20008KT 9SM -SN FEW018 SCT023 OVC038 M06/M07 A3004 RMK AO2 SNB38 SLP174 P0000 T10561072 FZRANO
PFEL 220611Z AUTO 20007KT 10SM BKN019 BKN028 OVC032 M05/M07 A3003 RMK AO2 FZRANO
PFEL 220556Z AUTO 20008KT 10SM OVC032 M05/M07 A3003 RMK AO2 SNE36 SLP171 P0000 60000 T10501067 11028 21050 53014 FZRANO
PFEL 220549Z AUTO 21004KT 10SM SCT025 OVC032 M05/M07 A3003 RMK AO2 SNE36 P0000 FZRANO
PFEL 220456Z AUTO 23006KT 9SM -SN OVC020 M04/M06 A3002 RMK AO2 UPE05B25E35SNB05E25B35 SLP167 P0000 T10441056 FZRANO
PFEL 220420Z AUTO 20008KT 9SM -SN FEW005 BKN016 OVC022 M04/M06 A3001 RMK AO2 UPE05SNB05 P0000 FZRANO
PFEL 220356Z AUTO 20009KT 9SM UP OVC005 M04/M06 A3000 RMK AO2 UPB14E21B37SNE14B21E37B45E54 CIG 004V009 SLP161 P0000 T10441056 FZRANO
PFEL 220326Z AUTO 19007KT 10SM -SN BKN009 OVC014 M04/M06 A3000 RMK AO2 UPB14E21SNE14B21 CIG 006V012 P0000 FZRANO
PFEL 220314Z AUTO 19008KT 9SM UP FEW006 SCT009 OVC014 M04/M06 A3000 RMK AO2 UPB14SNE14 P0000 FZRANO
PFEL 220256Z AUTO 18007KT 9SM -SN BKN006 BKN010 OVC024 M04/M06 A2999 RMK AO2 SNE0157B27 CIG 004V007 SLP156 P0000 60000 T10391056 53016 FZRANO
PFEL 220248Z AUTO 19008KT 9SM BKN008 OVC012 M04/M06 A2999 RMK AO2 SNE0157B27E43 CIG 004V009 P0000 FZRANO
PFEL 220237Z AUTO 18008KT 9SM -SN BKN010 OVC015 M04/M06 A2999 RMK AO2 SNE0157B27 CIG 007V013 P0000 FZRANO
PFEL 220207Z AUTO 19011KT 10SM SCT012 BKN021 OVC025 M04/M06 A2997 RMK AO2 SNE0157 FZRANO
PFEL 220156Z AUTO 20010G16KT 9SM -SN BKN012 BKN021 OVC026 M04/M06 A2997 RMK AO2 SNE17B44 SLP150 P0000 T10391056 FZRANO
PFEL 220143Z AUTO 18007KT 10SM BKN012 OVC022 M03/M05 A2997 RMK AO2 SNE17 P0000 FZRANO
PFEL 220108Z AUTO 18008KT 9SM -SN BKN009 OVC015 M03/M05 A2996 RMK AO2 CIG 008V012 P0000 FZRANO
PFEL 220105Z AUTO 18008KT 9SM -SN SCT011 OVC015 M03/M05 A2995 RMK AO2 P0000 FZRANO
PFEL 220056Z AUTO 18009KT 9SM -SN BKN011 OVC015 M03/M05 A2995 RMK AO2 CIG 008V014 SLP144 P0000 T10281050 FZRANO
PFEL 220028Z AUTO 18011KT 8SM -SN OVC011 M03/M04 A2995 RMK AO2 P0000 FZRANO
PFEL 212356Z AUTO 19011KT 9SM -SN OVC009 M03/M04 A2994 RMK AO2 CIG 006V011 SLP140 P0000 60000 T10331044 11033 21044 51008 FZRANO
PFEL 212342Z AUTO 18011KT 3SM -SN BR OVC009 M03/M04 A2994 RMK AO2 CIG 005V014 P0000 FZRANO
PFEL 212328Z AUTO 18008KT 1 3/4SM -SN BR BKN009 OVC013 M03/M04 A2994 RMK AO2 CIG 005V011 P0000 FZRANO
PFEL 212309Z AUTO 18009KT 1 1/4SM -SN BR SCT009 OVC015 M03/M04 A2994 RMK AO2 VIS 1V2 1/2 P0000 FZRANO
PFEL 212302Z AUTO 17009KT 1 3/4SM -SN BR FEW005 BKN011 OVC017 M03/M04 A2994 RMK AO2 VIS 1 1/4V3 P0000 FZRANO
PFEL 212258Z AUTO 18009KT 2SM -SN BR FEW005 BKN011 OVC018 M03/M04 A2993 RMK AO2 VIS 1 1/2V3 P0000 FZRANO
PFEL 212256Z AUTO 18010KT 1 3/4SM -SN BR FEW005 BKN009 OVC020 M03/M04 A2993 RMK AO2 VIS 1V3 CIG 007V011 SLP137 P0000 T10331044 FZRANO
PFEL 212252Z AUTO 18011KT 1 1/4SM -SN BR SCT007 BKN011 OVC018 M03/M04 A2993 RMK AO2 P0000 FZRANO
PFEL 212236Z AUTO 17010KT 1SM -SN BR FEW007 OVC013 M03/M04 A2993 RMK AO2 P0000 FZRANO
PFEL 212227Z AUTO 18009KT 1SM -SN BR SCT007 OVC015 M03/M04 A2993 RMK AO2 P0000 FZRANO
PFEL 212222Z AUTO 18010KT 1 3/4SM -SN BR BKN007 BKN013 OVC018 M03/M04 A2993 RMK AO2 VIS 3/4V5 P0000 FZRANO
PFEL 212156Z AUTO 17009KT 3SM -SN BR BKN007 BKN010 OVC018 M03/M04 A2992 RMK AO2 CIG 005V009 SLP133 P0000 T10331044 FZRANO
PFEL 212154Z AUTO 17009KT 2SM -SN BR BKN007 BKN013 OVC018 M03/M04 A2992 RMK AO2 CIG 005V010 P0000 FZRANO
PFEL 212147Z AUTO 18011KT 1 3/4SM -SN BR SCT007 BKN012 OVC019 M03/M04 A2992 RMK AO2 P0000 FZRANO
PFEL 212122Z AUTO 18010KT 2SM -SN BR OVC005 M04/M04 A2990 RMK AO2 P0000 FZRANO
PFEL 212115Z AUTO 18011KT 3SM -SN BR OVC005 M04/M04 A2990 RMK AO2 P0000 FZRANO
PFEL 212105Z AUTO 18011KT 2SM -SN BR OVC005 M04/M04 A2990 RMK AO2 VIS 1 3/4V3 P0000 FZRANO
PFEL 212056Z AUTO 18010KT 1 1/2SM -SN BR OVC005 M04/M04 A2990 RMK AO2 SLP125 P0000 60000 T10391044 53021 FZRANO
PFEL 212046Z AUTO 17009KT 1 3/4SM -SN BR OVC005 M04/M04 A2989 RMK AO2 CIG 005V009 P0000 FZRANO
PFEL 212015Z AUTO 17009KT 9SM -SN OVC005 M04/M04 A2988 RMK AO2 P0000 FZRANO
PFEL 212007Z AUTO 17012KT 3SM -SN BR OVC007 M04/M04 A2988 RMK AO2 P0000 FZRANO
PFEL 211956Z AUTO 17012KT 1 1/4SM -SN BR OVC007 M04/M04 A2987 RMK AO2 SLP117 P0000 T10391044 FZRANO
PFEL 211944Z AUTO 17011KT 1 1/4SM -SN BR OVC007 M04/M05 A2987 RMK AO2 P0000 FZRANO
PFEL 211930Z AUTO 17012KT 2SM -SN BR OVC007 M04/M05 A2987 RMK AO2 P0000 FZRANO
PFEL 211916Z AUTO 17011KT 1 3/4SM -SN BR OVC005 M04/M05 A2986 RMK AO2 VIS 3/4V3 CIG 004V008 P0000 FZRANO
PFEL 211913Z AUTO 17010KT 3SM -SN BR OVC005 M04/M05 A2986 RMK AO2 CIG 004V008 P0000 FZRANO
PFEL 211856Z AUTO 17010KT 2SM -SN BR OVC005 M04/M05 A2985 RMK AO2 VIS 1V5 SLP111 P0000 T10441050 FZRANO
PFEL 211840Z AUTO 17011G17KT 1SM -SN BR OVC005 M04/M05 A2985 RMK AO2 VIS 1/2V3 P0000 FZRANO
PFEL 211825Z AUTO 17013KT 2SM -SN BR OVC005 M04/M05 A2984 RMK AO2 VIS 3/4V5 P0000 FZRANO